Time;durP1;ratioP1;P1;durP2;ratioP2;P2;SDS_P1;SDS_P2;PMS_P1;PMS_P2;Temp;Humidity;BMP_temperature;BMP_pressure;BME280_temperature;BME280_humidity;BME280_pressure;Samples;Min_cycle;Max_cycle;Signal;HPM_P1;HPM_P2
2022/11/05 00:10:34;;;;;;;;;16.67;15.00;;;;;;;;5030046;28;45514;-67
2022/11/05 00:18:28;;;;;;;;;15.33;13.33;;;;;;;;5029253;28;45402;-66
2022/11/05 00:20:53;;;;;;;;;20.00;16.00;;;;;;;;5028594;28;45614;-65
2022/11/05 00:26:04;;;;;;;;;22.00;15.00;;;;;;;;5027392;28;46131;-66
2022/11/05 00:28:29;;;;;;;;;20.33;18.33;;;;;;;;5028520;28;46104;-66
2022/11/05 00:31:01;;;;;;;;;15.67;14.00;;;;;;;;5028042;28;45298;-66
2022/11/05 00:33:26;;;;;;;;;16.67;13.67;;;;;;;;5029249;28;46192;-66
2022/11/05 00:35:51;;;;;;;;;16.67;13.67;;;;;;;;5028273;28;45383;-66
2022/11/05 00:38:16;;;;;;;;;18.00;12.67;;;;;;;;5030213;28;45583;-67
2022/11/05 00:40:43;;;;;;;;;18.00;14.67;;;;;;;;5030672;28;45479;-67
2022/11/05 00:45:52;;;;;;;;;10.33;10.33;;;;;;;;5028610;28;45282;-64
2022/11/05 00:51:01;;;;;;;;;18.00;14.00;;;;;;;;5031336;28;45767;-66
2022/11/05 00:53:26;;;;;;;;;19.00;14.00;;;;;;;;5031366;28;45746;-67
2022/11/05 00:55:51;;;;;;;;;16.33;14.33;;;;;;;;5014013;28;45720;-65
2022/11/05 00:58:17;;;;;;;;;12.00;11.67;;;;;;;;5031579;28;46131;-68
2022/11/05 01:00:44;;;;;;;;;15.00;12.33;;;;;;;;5030354;28;45433;-68
2022/11/05 01:03:11;;;;;;;;;15.00;13.67;;;;;;;;5028441;28;45441;-67
2022/11/05 01:05:38;;;;;;;;;10.33;10.33;;;;;;;;5027467;28;45592;-66
2022/11/05 01:08:03;;;;;;;;;13.33;12.33;;;;;;;;5029558;28;45556;-65
2022/11/05 01:10:28;;;;;;;;;17.33;12.33;;;;;;;;5032261;28;45815;-66
2022/11/05 01:12:54;;;;;;;;;16.67;14.33;;;;;;;;5033153;28;45802;-65
2022/11/05 01:15:19;;;;;;;;;16.67;15.00;;;;;;;;5033724;28;45548;-65
2022/11/05 01:17:45;;;;;;;;;17.00;11.33;;;;;;;;5016866;28;45566;-63
2022/11/05 01:20:10;;;;;;;;;13.00;11.67;;;;;;;;5033143;28;45820;-65
2022/11/05 01:22:36;;;;;;;;;14.33;11.00;;;;;;;;5016565;28;48505;-65
2022/11/05 01:25:01;;;;;;;;;16.33;12.33;;;;;;;;5034038;28;45427;-65
2022/11/05 01:27:26;;;;;;;;;16.00;15.00;;;;;;;;5016533;28;45654;-65
2022/11/05 01:29:52;;;;;;;;;8.00;8.00;;;;;;;;5014695;28;46593;-64
2022/11/05 01:32:17;;;;;;;;;15.67;13.33;;;;;;;;5033246;28;46177;-66
2022/11/05 01:34:42;;;;;;;;;13.33;12.33;;;;;;;;5032439;28;45833;-67
2022/11/05 01:37:07;;;;;;;;;15.00;12.00;;;;;;;;5031223;28;45648;-67
2022/11/05 01:39:33;;;;;;;;;12.67;11.67;;;;;;;;5032376;28;45765;-66
2022/11/05 01:41:58;;;;;;;;;18.33;12.67;;;;;;;;5032674;28;46702;-64
2022/11/05 01:44:42;;;;;;;;;20.00;16.67;;;;;;;;5032289;28;45586;-65
2022/11/05 01:47:18;;;;;;;;;13.00;10.00;;;;;;;;5013395;28;45840;-66
2022/11/05 01:49:43;;;;;;;;;15.00;13.00;;;;;;;;5015098;28;46100;-65
2022/11/05 01:52:09;;;;;;;;;14.33;11.67;;;;;;;;5031007;28;45671;-66
2022/11/05 01:54:35;;;;;;;;;17.00;12.67;;;;;;;;5033233;28;45649;-66
2022/11/05 01:57:07;;;;;;;;;9.00;9.00;;;;;;;;5013452;28;45712;-65
2022/11/05 01:59:35;;;;;;;;;19.00;15.33;;;;;;;;5031937;28;45739;-63
2022/11/05 02:02:01;;;;;;;;;18.00;11.33;;;;;;;;5014430;28;45656;-65
2022/11/05 02:04:30;;;;;;;;;14.33;14.33;;;;;;;;5052084;28;45559;-64
2022/11/05 02:06:55;;;;;;;;;18.00;13.00;;;;;;;;5049498;28;45547;-65
2022/11/05 02:09:23;;;;;;;;;15.00;11.00;;;;;;;;5052772;28;45358;-65
2022/11/05 02:11:49;;;;;;;;;15.33;15.33;;;;;;;;5052408;28;45728;-67
2022/11/05 02:14:15;;;;;;;;;17.00;13.67;;;;;;;;5053090;28;46338;-64
2022/11/05 02:16:44;;;;;;;;;14.00;14.00;;;;;;;;5052061;28;45416;-66
2022/11/05 02:19:15;;;;;;;;;18.00;17.33;;;;;;;;5050935;28;45355;-65
2022/11/05 02:21:43;;;;;;;;;14.00;12.33;;;;;;;;5051981;28;45399;-67
2022/11/05 02:24:15;;;;;;;;;19.67;16.00;;;;;;;;5053145;28;45495;-64
2022/11/05 02:27:00;;;;;;;;;18.33;17.00;;;;;;;;5050706;28;45820;-65
2022/11/05 02:29:29;;;;;;;;;19.67;15.67;;;;;;;;5052718;28;45779;-65
2022/11/05 02:32:06;;;;;;;;;14.33;12.67;;;;;;;;5051828;28;46036;-64
2022/11/05 02:34:31;;;;;;;;;15.67;12.33;;;;;;;;5053906;28;45486;-66
2022/11/05 02:37:02;;;;;;;;;12.67;11.33;;;;;;;;5054482;28;45661;-64
2022/11/05 02:39:33;;;;;;;;;13.00;11.00;;;;;;;;5054440;28;45776;-65
2022/11/05 02:41:59;;;;;;;;;17.00;12.67;;;;;;;;5053786;28;46249;-66
2022/11/05 02:44:43;;;;;;;;;15.67;12.33;;;;;;;;5036425;28;45791;-66
2022/11/05 02:47:22;;;;;;;;;12.00;12.00;;;;;;;;5042549;28;45445;-64
2022/11/05 02:50:06;;;;;;;;;12.67;11.33;;;;;;;;5052862;28;45635;-64
2022/11/05 02:52:50;;;;;;;;;11.67;10.67;;;;;;;;5053636;28;45365;-65
2022/11/05 02:55:33;;;;;;;;;12.33;9.67;;;;;;;;5056762;28;45769;-64
2022/11/05 02:58:00;;;;;;;;;9.00;8.00;;;;;;;;5052339;28;45648;-66
2022/11/05 03:00:37;;;;;;;;;11.00;9.00;;;;;;;;5051895;28;45313;-65
2022/11/05 03:03:03;;;;;;;;;9.33;7.33;;;;;;;;5048723;28;45745;-66
2022/11/05 03:05:32;;;;;;;;;15.67;12.33;;;;;;;;5034864;28;45711;-66
2022/11/05 03:08:02;;;;;;;;;14.00;9.00;;;;;;;;5050596;28;45653;-64
2022/11/05 03:10:28;;;;;;;;;13.33;9.67;;;;;;;;5048285;28;45578;-65
2022/11/05 03:12:55;;;;;;;;;8.33;8.33;;;;;;;;5050907;28;46481;-65
2022/11/05 03:15:27;;;;;;;;;13.67;12.00;;;;;;;;5050967;28;45947;-64
2022/11/05 03:18:01;;;;;;;;;13.67;8.33;;;;;;;;5048398;28;45742;-64
2022/11/05 03:20:33;;;;;;;;;7.33;7.33;;;;;;;;5050999;28;46004;-64
2022/11/05 03:23:10;;;;;;;;;8.67;7.00;;;;;;;;5050866;28;45554;-66
2022/11/05 03:25:38;;;;;;;;;15.00;10.00;;;;;;;;5052165;28;46039;-65
2022/11/05 03:28:05;;;;;;;;;9.00;7.67;;;;;;;;5051672;28;45819;-65
2022/11/05 03:30:32;;;;;;;;;7.67;7.67;;;;;;;;5052260;28;45504;-65
2022/11/05 03:33:01;;;;;;;;;15.33;10.00;;;;;;;;5051610;28;45977;-66
2022/11/05 03:35:29;;;;;;;;;13.67;10.00;;;;;;;;5050518;28;45500;-65
2022/11/05 03:37:57;;;;;;;;;12.00;9.00;;;;;;;;5048849;28;45748;-64
2022/11/05 03:40:22;;;;;;;;;11.00;10.00;;;;;;;;5050729;28;45662;-65
2022/11/05 03:42:52;;;;;;;;;13.67;10.00;;;;;;;;5034058;28;48567;-66
2022/11/05 03:45:20;;;;;;;;;9.67;8.00;;;;;;;;5030305;28;45857;-66
2022/11/05 03:47:46;;;;;;;;;11.67;11.00;;;;;;;;5050938;28;45412;-67
2022/11/05 03:50:16;;;;;;;;;13.33;9.00;;;;;;;;5049743;28;45377;-65
2022/11/05 03:52:47;;;;;;;;;15.67;10.33;;;;;;;;5033037;28;48448;-64
2022/11/05 03:55:13;;;;;;;;;16.33;10.00;;;;;;;;5051280;28;45440;-67
2022/11/05 03:57:41;;;;;;;;;14.67;11.67;;;;;;;;5050086;28;45579;-66
2022/11/05 04:00:08;;;;;;;;;11.00;11.00;;;;;;;;5049027;28;45442;-67
2022/11/05 04:02:33;;;;;;;;;10.67;10.00;;;;;;;;5050838;28;46253;-66
2022/11/05 04:04:59;;;;;;;;;12.00;8.00;;;;;;;;5050958;28;45450;-66
2022/11/05 04:17:05;;;;;;;;;11.67;9.00;;;;;;;;5048546;28;45491;-66
2022/11/05 04:18:21;;;;;;;;;11.33;10.67;;;;;;;;5049079;28;45464;-66
2022/11/05 04:26:14;;;;;;;;;7.33;7.33;;;;;;;;5050707;28;45642;-66
2022/11/05 04:31:23;;;;;;;;;8.33;6.33;;;;;;;;5047672;28;45391;-65
2022/11/05 04:33:48;;;;;;;;;11.00;8.00;;;;;;;;5049208;28;46571;-66
2022/11/05 04:36:13;;;;;;;;;10.00;8.33;;;;;;;;5050590;28;45584;-67
2022/11/05 04:38:38;;;;;;;;;8.00;7.00;;;;;;;;5051272;28;45323;-67
2022/11/05 04:41:16;;;;;;;;;11.00;9.33;;;;;;;;5051294;28;45935;-67
2022/11/05 04:43:42;;;;;;;;;10.33;8.33;;;;;;;;5051247;28;46527;-65
2022/11/05 04:46:07;;;;;;;;;7.00;7.00;;;;;;;;5052726;28;45729;-65
2022/11/05 04:48:32;;;;;;;;;10.00;8.33;;;;;;;;5051851;28;45710;-67
2022/11/05 04:50:58;;;;;;;;;9.67;9.33;;;;;;;;5054928;28;45808;-65
2022/11/05 04:53:23;;;;;;;;;11.00;9.00;;;;;;;;5058468;28;46830;-65
2022/11/05 04:55:48;;;;;;;;;11.00;10.00;;;;;;;;5055402;28;45825;-67
2022/11/05 04:58:13;;;;;;;;;13.67;10.00;;;;;;;;5054948;28;45930;-65
2022/11/05 05:00:39;;;;;;;;;11.33;9.67;;;;;;;;5037130;28;46012;-65
2022/11/05 05:03:04;;;;;;;;;5.67;4.00;;;;;;;;5057067;28;45805;-65
2022/11/05 05:05:29;;;;;;;;;8.33;8.33;;;;;;;;5054127;28;45877;-66
2022/11/05 05:07:59;;;;;;;;;10.33;9.00;;;;;;;;5034322;28;45789;-64
2022/11/05 05:10:25;;;;;;;;;11.67;9.00;;;;;;;;5050127;28;45958;-65
2022/11/05 05:12:50;;;;;;;;;11.67;8.33;;;;;;;;5054355;28;45865;-66
2022/11/05 05:15:15;;;;;;;;;14.67;9.33;;;;;;;;5053604;28;45429;-65
2022/11/05 05:17:40;;;;;;;;;12.00;10.33;;;;;;;;5053381;28;45809;-65
2022/11/05 05:22:50;;;;;;;;;11.33;11.33;;;;;;;;5055046;28;45902;-65
2022/11/05 05:25:16;;;;;;;;;12.33;8.67;;;;;;;;5035773;28;45891;-64
2022/11/05 05:27:41;;;;;;;;;9.33;8.00;;;;;;;;5052577;28;45926;-67
2022/11/05 05:30:07;;;;;;;;;9.67;9.00;;;;;;;;5053390;28;45900;-66
2022/11/05 05:32:32;;;;;;;;;11.33;8.00;;;;;;;;5068503;28;47789;-65
2022/11/05 05:34:57;;;;;;;;;14.33;10.33;;;;;;;;5053245;28;45500;-66
2022/11/05 05:37:22;;;;;;;;;9.67;8.00;;;;;;;;5054244;28;45784;-66
2022/11/05 05:39:48;;;;;;;;;8.33;8.33;;;;;;;;5054058;28;45878;-65
2022/11/05 05:42:15;;;;;;;;;11.00;10.33;;;;;;;;5046288;28;47226;-65
2022/11/05 05:44:40;;;;;;;;;7.67;6.00;;;;;;;;5048151;28;45336;-65
2022/11/05 05:47:05;;;;;;;;;7.33;7.33;;;;;;;;5030913;28;45770;-64
2022/11/05 05:49:31;;;;;;;;;7.67;7.00;;;;;;;;5050219;28;45975;-65
2022/11/05 05:51:56;;;;;;;;;9.33;9.33;;;;;;;;5047013;28;46003;-65
2022/11/05 05:54:21;;;;;;;;;8.33;7.00;;;;;;;;5047408;28;45755;-67
2022/11/05 05:56:47;;;;;;;;;7.33;5.67;;;;;;;;5045843;28;45526;-64
2022/11/05 05:59:12;;;;;;;;;9.00;9.00;;;;;;;;5046448;28;46255;-66
2022/11/05 06:01:37;;;;;;;;;11.33;8.00;;;;;;;;5047617;28;46322;-64
2022/11/05 06:04:03;;;;;;;;;10.00;7.67;;;;;;;;5025775;28;45439;-64
2022/11/05 06:06:28;;;;;;;;;8.33;8.00;;;;;;;;5028013;28;45373;-64
2022/11/05 06:08:54;;;;;;;;;8.33;6.00;;;;;;;;5033625;28;45482;-65
2022/11/05 06:11:20;;;;;;;;;11.33;9.00;;;;;;;;5033719;28;47091;-64
2022/11/05 06:13:45;;;;;;;;;10.00;7.67;;;;;;;;5045989;28;45528;-65
2022/11/05 06:16:11;;;;;;;;;11.33;10.00;;;;;;;;5050717;28;45380;-65
2022/11/05 06:18:36;;;;;;;;;8.00;6.00;;;;;;;;5053138;28;45409;-65
2022/11/05 06:21:03;;;;;;;;;10.33;8.00;;;;;;;;5045353;28;45532;-66
2022/11/05 06:23:32;;;;;;;;;8.00;7.00;;;;;;;;5043500;28;45754;-66
2022/11/05 06:26:05;;;;;;;;;9.00;8.00;;;;;;;;5044117;28;45732;-66
2022/11/05 06:28:30;;;;;;;;;9.67;9.00;;;;;;;;5046772;28;46009;-69
2022/11/05 06:30:56;;;;;;;;;11.67;9.67;;;;;;;;5047258;28;46180;-68
2022/11/05 06:33:22;;;;;;;;;9.00;7.00;;;;;;;;5049774;28;45946;-66
2022/11/05 06:35:47;;;;;;;;;7.33;7.33;;;;;;;;5051320;28;45455;-65
2022/11/05 06:38:12;;;;;;;;;9.33;8.33;;;;;;;;5052451;28;45709;-66
2022/11/05 06:40:37;;;;;;;;;6.33;6.33;;;;;;;;5052896;28;46065;-66
2022/11/05 06:43:03;;;;;;;;;9.67;7.67;;;;;;;;5052868;28;45420;-67
2022/11/05 06:45:28;;;;;;;;;9.67;9.00;;;;;;;;5042813;28;45943;-66
2022/11/05 06:47:54;;;;;;;;;9.67;7.00;;;;;;;;5047394;28;45366;-66
2022/11/05 06:50:19;;;;;;;;;10.67;10.00;;;;;;;;5040534;28;45516;-66
2022/11/05 06:52:51;;;;;;;;;10.67;7.67;;;;;;;;5042791;28;45795;-64
2022/11/05 06:55:16;;;;;;;;;11.00;8.33;;;;;;;;5045968;28;45504;-66
2022/11/05 06:57:41;;;;;;;;;8.00;5.67;;;;;;;;5050875;28;45846;-67
2022/11/05 07:00:07;;;;;;;;;9.33;7.67;;;;;;;;5044448;28;46720;-67
2022/11/05 07:02:32;;;;;;;;;11.67;7.67;;;;;;;;5024725;28;45571;-65
2022/11/05 07:04:57;;;;;;;;;4.67;4.67;;;;;;;;5041148;28;45484;-65
2022/11/05 07:07:23;;;;;;;;;11.33;10.33;;;;;;;;5044315;28;45833;-65
2022/11/05 07:09:50;;;;;;;;;8.33;8.33;;;;;;;;5027840;28;47777;-67
2022/11/05 07:12:15;;;;;;;;;9.00;8.00;;;;;;;;5033945;28;45350;-67
2022/11/05 07:14:41;;;;;;;;;12.67;11.33;;;;;;;;5033347;28;45796;-66
2022/11/05 07:17:06;;;;;;;;;16.33;10.67;;;;;;;;5049964;28;45429;-68
2022/11/05 07:19:31;;;;;;;;;20.00;12.67;;;;;;;;5042178;28;46710;-67
2022/11/05 07:21:56;;;;;;;;;15.33;12.67;;;;;;;;5042077;28;45791;-67
2022/11/05 07:24:22;;;;;;;;;18.33;17.00;;;;;;;;5047152;28;45734;-66
2022/11/05 07:26:47;;;;;;;;;24.67;16.33;;;;;;;;5042877;28;46180;-65
2022/11/05 07:29:15;;;;;;;;;22.33;20.67;;;;;;;;5041842;28;46004;-65
2022/11/05 07:31:41;;;;;;;;;37.33;32.67;;;;;;;;5029661;28;45769;-65
2022/11/05 07:34:06;;;;;;;;;15.67;13.67;;;;;;;;5055638;28;45875;-68
2022/11/05 07:36:31;;;;;;;;;19.33;13.67;;;;;;;;5039483;28;45575;-65
2022/11/05 07:38:56;;;;;;;;;22.00;17.33;;;;;;;;5039069;28;45668;-69
2022/11/05 07:41:22;;;;;;;;;49.33;35.67;;;;;;;;5042242;28;45514;-67
2022/11/05 07:43:47;;;;;;;;;19.67;17.33;;;;;;;;5039547;28;45603;-68
2022/11/05 07:46:12;;;;;;;;;16.33;12.00;;;;;;;;5042875;28;45853;-66
2022/11/05 07:48:38;;;;;;;;;9.00;9.00;;;;;;;;5038409;28;46975;-67
2022/11/05 07:51:03;;;;;;;;;13.00;12.00;;;;;;;;5027102;28;45334;-66
2022/11/05 07:53:28;;;;;;;;;9.67;9.67;;;;;;;;5039155;28;45866;-65
2022/11/05 07:55:55;;;;;;;;;15.00;13.00;;;;;;;;5037756;28;45681;-65
2022/11/05 07:58:21;;;;;;;;;17.00;16.33;;;;;;;;5039244;28;45500;-63
2022/11/05 08:00:46;;;;;;;;;15.00;7.67;;;;;;;;5044704;28;45955;-65
2022/11/05 08:03:13;;;;;;;;;16.67;15.67;;;;;;;;5041972;28;45721;-65
2022/11/05 08:05:39;;;;;;;;;11.67;9.67;;;;;;;;5019791;28;46279;-64
2022/11/05 08:08:08;;;;;;;;;12.00;10.00;;;;;;;;5015334;28;48109;-65
2022/11/05 08:10:33;;;;;;;;;11.67;9.00;;;;;;;;5027689;28;45436;-67
2022/11/05 08:12:59;;;;;;;;;7.67;7.67;;;;;;;;5043721;28;45428;-66
2022/11/05 08:15:24;;;;;;;;;8.33;7.33;;;;;;;;5044252;28;45472;-66
2022/11/05 08:17:56;;;;;;;;;8.67;7.00;;;;;;;;5046658;28;45562;-66
2022/11/05 08:20:21;;;;;;;;;10.67;9.67;;;;;;;;5031701;28;45406;-66
2022/11/05 08:22:46;;;;;;;;;9.33;7.33;;;;;;;;5047501;28;45483;-67
2022/11/05 08:25:11;;;;;;;;;10.67;10.67;;;;;;;;5029638;28;46068;-66
2022/11/05 08:27:37;;;;;;;;;5.33;5.33;;;;;;;;5045441;28;45656;-65
2022/11/05 08:30:04;;;;;;;;;7.67;6.67;;;;;;;;5046459;28;45434;-67
2022/11/05 08:32:29;;;;;;;;;7.00;5.33;;;;;;;;5029388;28;45729;-66
2022/11/05 08:34:54;;;;;;;;;9.33;8.67;;;;;;;;5039981;28;45840;-67
2022/11/05 08:37:19;;;;;;;;;11.00;9.00;;;;;;;;5039693;28;46558;-66
2022/11/05 08:39:44;;;;;;;;;9.67;9.00;;;;;;;;5027549;28;46482;-69
2022/11/05 08:42:10;;;;;;;;;7.67;6.33;;;;;;;;5043369;28;45762;-66
2022/11/05 08:44:35;;;;;;;;;10.33;7.33;;;;;;;;5048636;28;45823;-66
2022/11/05 08:47:00;;;;;;;;;6.33;5.67;;;;;;;;5048550;28;45843;-66
2022/11/05 08:49:26;;;;;;;;;12.00;9.00;;;;;;;;5027233;28;46152;-64
2022/11/05 08:51:51;;;;;;;;;7.00;7.00;;;;;;;;5044953;28;45460;-63
2022/11/05 08:54:16;;;;;;;;;9.33;8.33;;;;;;;;5045689;28;45419;-68
2022/11/05 08:56:41;;;;;;;;;7.33;5.33;;;;;;;;5036895;28;45538;-65
2022/11/05 08:59:07;;;;;;;;;4.00;4.00;;;;;;;;5047031;28;46237;-65
2022/11/05 09:01:32;;;;;;;;;5.00;5.00;;;;;;;;5034372;28;45818;-65
2022/11/05 09:03:58;;;;;;;;;8.00;7.00;;;;;;;;5046243;28;45657;-66
2022/11/05 09:06:23;;;;;;;;;16.00;12.33;;;;;;;;5033772;28;46075;-65
2022/11/05 09:08:48;;;;;;;;;8.33;7.33;;;;;;;;5039477;28;45671;-66
2022/11/05 09:11:13;;;;;;;;;18.33;12.67;;;;;;;;5024508;28;45631;-65
2022/11/05 09:13:39;;;;;;;;;8.00;7.00;;;;;;;;5029537;28;46792;-66
2022/11/05 09:16:04;;;;;;;;;13.00;9.00;;;;;;;;5040266;28;46580;-65
2022/11/05 09:18:29;;;;;;;;;9.00;8.00;;;;;;;;5038370;28;45761;-64
2022/11/05 09:20:55;;;;;;;;;7.33;6.00;;;;;;;;5034717;28;46111;-65
2022/11/05 09:23:20;;;;;;;;;12.33;8.33;;;;;;;;5040351;28;45514;-66
2022/11/05 09:25:45;;;;;;;;;6.67;5.00;;;;;;;;5039991;28;46099;-66
2022/11/05 09:28:15;;;;;;;;;4.00;4.00;;;;;;;;5045741;28;45724;-65
2022/11/05 09:30:41;;;;;;;;;7.00;4.67;;;;;;;;5043854;28;46407;-65
2022/11/05 09:33:07;;;;;;;;;8.33;5.00;;;;;;;;5036897;28;45374;-64
2022/11/05 09:35:32;;;;;;;;;5.33;3.00;;;;;;;;5043119;28;45988;-66
2022/11/05 09:37:57;;;;;;;;;6.00;4.33;;;;;;;;5042167;28;45409;-65
2022/11/05 09:40:24;;;;;;;;;3.33;3.33;;;;;;;;5045810;28;46455;-67
2022/11/05 09:42:51;;;;;;;;;3.67;3.67;;;;;;;;5045733;28;45536;-66
2022/11/05 09:45:19;;;;;;;;;18.67;16.33;;;;;;;;5041630;28;45560;-67
2022/11/05 09:47:57;;;;;;;;;3.00;3.00;;;;;;;;5038559;28;45866;-66
2022/11/05 09:50:29;;;;;;;;;8.00;7.33;;;;;;;;5046095;28;45924;-67
2022/11/05 09:52:54;;;;;;;;;8.00;5.00;;;;;;;;5042674;28;45821;-64
2022/11/05 09:55:22;;;;;;;;;9.67;6.67;;;;;;;;5044848;28;45534;-67
2022/11/05 09:57:53;;;;;;;;;7.33;4.67;;;;;;;;5048723;28;45771;-69
2022/11/05 10:00:19;;;;;;;;;5.67;4.33;;;;;;;;5048960;28;45816;-67
2022/11/05 10:02:49;;;;;;;;;5.00;3.00;;;;;;;;5044161;28;45318;-67
2022/11/05 10:05:16;;;;;;;;;8.33;4.00;;;;;;;;5044972;28;45815;-69
2022/11/05 10:07:44;;;;;;;;;4.00;3.33;;;;;;;;5052042;28;46379;-66
2022/11/05 10:10:27;;;;;;;;;3.33;3.33;;;;;;;;5036052;28;45571;-67
2022/11/05 10:12:54;;;;;;;;;5.67;4.00;;;;;;;;5039954;28;45750;-66
2022/11/05 10:15:20;;;;;;;;;6.33;6.33;;;;;;;;5034686;28;45776;-66
2022/11/05 10:17:48;;;;;;;;;5.00;5.00;;;;;;;;5041577;28;45555;-66
2022/11/05 10:20:22;;;;;;;;;4.33;2.00;;;;;;;;5040775;28;45737;-65
2022/11/05 10:22:48;;;;;;;;;3.33;3.33;;;;;;;;5043821;28;45726;-67
2022/11/05 10:25:15;;;;;;;;;2.00;2.00;;;;;;;;5045397;28;45786;-66
2022/11/05 10:27:43;;;;;;;;;4.67;4.67;;;;;;;;5041743;28;45425;-69
2022/11/05 10:30:12;;;;;;;;;5.00;5.00;;;;;;;;5044401;28;45632;-66
2022/11/05 10:32:38;;;;;;;;;2.33;2.33;;;;;;;;5047003;28;45310;-67
2022/11/05 10:35:05;;;;;;;;;5.00;3.00;;;;;;;;5047445;28;45603;-65
2022/11/05 10:37:31;;;;;;;;;6.67;5.00;;;;;;;;5047719;28;45706;-66
2022/11/05 10:39:56;;;;;;;;;4.00;2.67;;;;;;;;5050427;28;45496;-66
2022/11/05 10:42:40;;;;;;;;;7.00;4.00;;;;;;;;5050074;28;45402;-65
2022/11/05 10:45:17;;;;;;;;;5.33;4.00;;;;;;;;5049227;28;45767;-67
2022/11/05 10:48:06;;;;;;;;;5.33;5.00;;;;;;;;5050961;28;45325;-71
2022/11/05 10:50:31;;;;;;;;;3.33;3.33;;;;;;;;5012145;28;45687;-65
2022/11/05 10:52:58;;;;;;;;;2.33;2.33;;;;;;;;5041319;28;45701;-68
2022/11/05 10:55:35;;;;;;;;;3.67;3.33;;;;;;;;5030054;28;47979;-68
2022/11/05 10:58:29;;;;;;;;;1.00;1.00;;;;;;;;5036967;28;45490;-68
2022/11/05 11:00:54;;;;;;;;;2.33;2.33;;;;;;;;5022565;28;45861;-67
2022/11/05 11:03:37;;;;;;;;;3.00;3.00;;;;;;;;5035102;28;45662;-67
2022/11/05 11:06:06;;;;;;;;;4.67;3.00;;;;;;;;5036768;28;46544;-68
2022/11/05 11:08:34;;;;;;;;;2.33;2.00;;;;;;;;5035649;28;45448;-68
2022/11/05 11:11:02;;;;;;;;;4.00;4.00;;;;;;;;5035798;28;46106;-67
2022/11/05 11:13:28;;;;;;;;;2.33;2.00;;;;;;;;5043034;28;45472;-68
2022/11/05 11:15:54;;;;;;;;;3.00;3.00;;;;;;;;5045332;28;46139;-70
2022/11/05 11:18:22;;;;;;;;;3.00;3.00;;;;;;;;5043850;28;45695;-69
2022/11/05 11:20:47;;;;;;;;;2.67;2.67;;;;;;;;5047120;28;45851;-66
2022/11/05 11:23:13;;;;;;;;;9.00;4.33;;;;;;;;5039799;28;45922;-67
2022/11/05 11:26:02;;;;;;;;;85.00;65.50;;;;;;;;5046841;28;46459;-66
2022/11/05 11:28:31;;;;;;;;;8.00;5.33;;;;;;;;5041866;28;45529;-67
2022/11/05 11:31:05;;;;;;;;;16.33;14.33;;;;;;;;5025877;28;45807;-67
2022/11/05 11:33:32;;;;;;;;;21.33;17.67;;;;;;;;5048049;28;45693;-66
2022/11/05 11:35:58;;;;;;;;;17.00;14.67;;;;;;;;5036741;28;45942;-67
2022/11/05 11:38:24;;;;;;;;;23.67;19.33;;;;;;;;5040241;28;45838;-66
2022/11/05 11:40:50;;;;;;;;;37.67;31.00;;;;;;;;5035411;28;45410;-67
2022/11/05 11:43:28;;;;;;;;;14.67;12.33;;;;;;;;5040242;28;46031;-67
2022/11/05 11:45:55;;;;;;;;;7.00;6.33;;;;;;;;5037563;28;46175;-66
2022/11/05 11:48:26;;;;;;;;;11.67;9.33;;;;;;;;5040250;28;45544;-70
2022/11/05 11:50:52;;;;;;;;;5.33;4.33;;;;;;;;5029480;28;45904;-67
2022/11/05 11:53:20;;;;;;;;;8.00;6.00;;;;;;;;5039198;28;45572;-66
2022/11/05 11:55:54;;;;;;;;;7.33;7.33;;;;;;;;5033934;28;45855;-67
2022/11/05 11:58:20;;;;;;;;;12.67;10.00;;;;;;;;5036790;28;46024;-68
2022/11/05 12:00:49;;;;;;;;;20.67;19.33;;;;;;;;5037286;28;45374;-67
2022/11/05 12:03:21;;;;;;;;;12.67;11.33;;;;;;;;5034906;28;45860;-67
2022/11/05 12:06:07;;;;;;;;;5.33;5.33;;;;;;;;5034976;28;46328;-67
2022/11/05 12:08:36;;;;;;;;;6.00;2.50;;;;;;;;5023337;28;45391;-67
2022/11/05 12:11:07;;;;;;;;;15.33;11.33;;;;;;;;5034416;28;45392;-66
2022/11/05 12:13:47;;;;;;;;;4.25;2.00;;;;;;;;5019206;28;45672;-66
2022/11/05 12:16:20;;;;;;;;;18.00;15.33;;;;;;;;5035769;28;45592;-67
2022/11/05 12:18:51;;;;;;;;;5.00;2.33;;;;;;;;5016211;28;45424;-67
2022/11/05 12:21:28;;;;;;;;;6.00;6.00;;;;;;;;5050825;28;45842;-67
2022/11/05 12:24:13;;;;;;;;;10.67;10.00;;;;;;;;5032579;28;45527;-67
2022/11/05 12:26:38;;;;;;;;;5.00;3.67;;;;;;;;5048830;28;46550;-67
2022/11/05 12:29:06;;;;;;;;;6.33;6.00;;;;;;;;5050547;28;45598;-68
2022/11/05 12:31:36;;;;;;;;;2.50;2.50;;;;;;;;5048127;28;45772;-67
2022/11/05 12:34:13;;;;;;;;;3.00;3.00;;;;;;;;5050805;28;45672;-65
2022/11/05 12:37:03;;;;;;;;;3.00;1.00;;;;;;;;5051202;28;45490;-66
2022/11/05 12:39:58;;;;;;;;;3.50;2.75;;;;;;;;5050995;28;46080;-67
2022/11/05 12:42:33;;;;;;;;;1.00;0.00;;;;;;;;5011801;28;45415;-66
2022/11/05 12:45:01;;;;;;;;;3.33;2.00;;;;;;;;5041293;28;45741;-67
2022/11/05 12:47:27;;;;;;;;;3.67;3.67;;;;;;;;5049139;28;45453;-67
2022/11/05 12:49:59;;;;;;;;;3.00;2.00;;;;;;;;5040582;28;45651;-66
2022/11/05 12:52:24;;;;;;;;;4.33;4.00;;;;;;;;5015149;28;45728;-65
2022/11/05 12:55:12;;;;;;;;;1.00;1.00;;;;;;;;5006558;28;45778;-66
2022/11/05 12:57:39;;;;;;;;;5.00;4.00;;;;;;;;5014854;28;46307;-65
2022/11/05 13:00:14;;;;;;;;;2.67;2.67;;;;;;;;5020895;28;45614;-66
2022/11/05 13:03:03;;;;;;;;;4.67;3.67;;;;;;;;5015663;28;45831;-65
2022/11/05 13:05:44;;;;;;;;;2.33;2.00;;;;;;;;5022202;28;45409;-67
2022/11/05 13:08:28;;;;;;;;;7.33;5.67;;;;;;;;5025177;28;45696;-65
2022/11/05 13:11:05;;;;;;;;;2.00;2.00;;;;;;;;5026968;28;45489;-67
2022/11/05 13:13:46;;;;;;;;;5.67;3.33;;;;;;;;5020512;28;45404;-66
2022/11/05 13:16:15;;;;;;;;;3.00;3.00;;;;;;;;5021566;28;45897;-68
2022/11/05 13:18:43;;;;;;;;;14.33;9.67;;;;;;;;5019595;28;46381;-67
2022/11/05 13:21:09;;;;;;;;;7.33;5.00;;;;;;;;5002694;28;45520;-70
2022/11/05 13:23:40;;;;;;;;;4.00;3.00;;;;;;;;5024574;28;45920;-68
2022/11/05 13:26:14;;;;;;;;;2.00;2.00;;;;;;;;5019754;28;45524;-67
2022/11/05 13:28:45;;;;;;;;;3.67;2.00;;;;;;;;5021756;28;45827;-68
2022/11/05 13:31:13;;;;;;;;;4.33;3.67;;;;;;;;5025670;28;45582;-66
2022/11/05 13:33:41;;;;;;;;;3.00;3.00;;;;;;;;5024627;28;45784;-65
2022/11/05 13:38:58;;;;;;;;;4.33;3.00;;;;;;;;5015921;28;45771;-66
2022/11/05 13:41:42;;;;;;;;;5.33;3.33;;;;;;;;5021468;28;45961;-67
2022/11/05 13:44:07;;;;;;;;;7.67;4.00;;;;;;;;5019896;28;45663;-66
2022/11/05 13:46:38;;;;;;;;;6.00;4.00;;;;;;;;5021610;28;45737;-67
2022/11/05 13:49:22;;;;;;;;;4.33;3.00;;;;;;;;5020760;28;46782;-66
2022/11/05 13:51:52;;;;;;;;;3.00;3.00;;;;;;;;5022107;28;45991;-65
2022/11/05 13:54:36;;;;;;;;;3.00;3.00;;;;;;;;5017489;28;45457;-66
2022/11/05 13:57:16;;;;;;;;;3.00;3.00;;;;;;;;5014202;28;45908;-65
2022/11/05 13:59:45;;;;;;;;;3.00;2.67;;;;;;;;5018483;28;45473;-65
2022/11/05 14:02:16;;;;;;;;;6.00;5.00;;;;;;;;5019317;28;45470;-68
2022/11/05 14:04:46;;;;;;;;;7.33;4.33;;;;;;;;5029547;28;45470;-64
2022/11/05 14:07:17;;;;;;;;;5.67;4.00;;;;;;;;5025536;28;45501;-65
2022/11/05 14:09:43;;;;;;;;;4.33;3.00;;;;;;;;5028309;28;46054;-67
2022/11/05 14:12:23;;;;;;;;;4.00;4.00;;;;;;;;5019272;28;45354;-65
2022/11/05 14:14:51;;;;;;;;;5.00;4.00;;;;;;;;5024952;28;45445;-66
2022/11/05 14:17:31;;;;;;;;;2.67;2.00;;;;;;;;5002917;28;46647;-66
2022/11/05 14:20:03;;;;;;;;;4.33;4.33;;;;;;;;5023106;28;47415;-64
2022/11/05 14:22:31;;;;;;;;;4.00;4.00;;;;;;;;5024497;28;45474;-67
2022/11/05 14:24:57;;;;;;;;;3.00;3.00;;;;;;;;5004058;28;45834;-65
2022/11/05 14:27:28;;;;;;;;;5.00;4.33;;;;;;;;5014881;28;45665;-65
2022/11/05 14:29:54;;;;;;;;;5.00;4.00;;;;;;;;5020587;28;45988;-66
2022/11/05 14:32:19;;;;;;;;;6.67;4.67;;;;;;;;5025468;28;46018;-65
2022/11/05 14:35:03;;;;;;;;;5.00;4.33;;;;;;;;5018151;28;45351;-64
2022/11/05 14:37:54;;;;;;;;;7.00;4.00;;;;;;;;5017360;28;45510;-65
2022/11/05 14:40:25;;;;;;;;;7.67;5.00;;;;;;;;4996050;28;47217;-66
2022/11/05 14:42:53;;;;;;;;;7.00;5.00;;;;;;;;5015496;28;45320;-65
2022/11/05 14:45:38;;;;;;;;;5.50;5.50;;;;;;;;5013890;28;46305;-65
2022/11/05 14:48:04;;;;;;;;;4.33;3.00;;;;;;;;5022833;28;45517;-66
2022/11/05 14:50:40;;;;;;;;;3.00;2.67;;;;;;;;5022234;28;46133;-65
2022/11/05 14:53:09;;;;;;;;;5.00;4.00;;;;;;;;5008418;28;45979;-64
2022/11/05 14:55:36;;;;;;;;;8.00;7.00;;;;;;;;5019698;28;45374;-64
2022/11/05 14:58:03;;;;;;;;;4.67;3.67;;;;;;;;5025576;28;45699;-65
2022/11/05 15:00:29;;;;;;;;;9.00;4.00;;;;;;;;5021686;28;45506;-66
2022/11/05 15:02:58;;;;;;;;;10.33;6.67;;;;;;;;5025210;28;45389;-67
2022/11/05 15:05:29;;;;;;;;;20.67;16.00;;;;;;;;5024832;28;45725;-66
2022/11/05 15:07:55;;;;;;;;;11.00;8.00;;;;;;;;5004005;28;46005;-65
2022/11/05 15:10:22;;;;;;;;;25.00;18.00;;;;;;;;5011269;28;46332;-64
2022/11/05 15:12:50;;;;;;;;;11.33;10.67;;;;;;;;5020670;28;45895;-64
2022/11/05 15:15:18;;;;;;;;;13.33;9.67;;;;;;;;5023460;28;45903;-66
2022/11/05 15:17:47;;;;;;;;;12.00;8.67;;;;;;;;5019668;28;45563;-65
2022/11/05 15:20:16;;;;;;;;;10.33;5.67;;;;;;;;5022425;28;45649;-65
2022/11/05 15:22:58;;;;;;;;;9.33;6.00;;;;;;;;5023514;28;45471;-68
2022/11/05 15:25:29;;;;;;;;;10.00;10.00;;;;;;;;5019294;28;45517;-66
2022/11/05 15:27:59;;;;;;;;;10.67;5.33;;;;;;;;5022125;28;45572;-71